createdAt,value
2018-04-17T00:00:52.325Z,99.90
2018-04-17T00:01:55.669Z,99.90
2018-04-17T00:02:59.019Z,99.90
2018-04-17T00:04:02.405Z,99.90
2018-04-17T00:05:06.525Z,99.90
2018-04-17T00:06:09.930Z,99.90
2018-04-17T00:07:14.068Z,99.90
2018-04-17T00:08:17.390Z,99.90
2018-04-17T00:09:20.740Z,99.90
2018-04-17T00:10:24.032Z,99.90
2018-04-17T00:11:27.357Z,99.90
2018-04-17T00:12:30.753Z,99.90
2018-04-17T00:13:34.103Z,99.90
2018-04-17T00:14:37.674Z,99.90
2018-04-17T00:15:41.064Z,99.90
2018-04-17T00:16:44.615Z,99.90
2018-04-17T00:17:48.043Z,99.90
2018-04-17T00:18:51.768Z,99.90
2018-04-17T00:19:55.257Z,99.90
2018-04-17T00:20:59.926Z,99.90
2018-04-17T00:22:03.429Z,99.90
2018-04-17T00:23:06.828Z,99.90
2018-04-17T00:24:10.214Z,99.90
2018-04-17T00:25:13.607Z,99.90
2018-04-17T00:26:16.972Z,99.90
2018-04-17T00:27:20.360Z,99.90
2018-04-17T00:28:23.682Z,99.90
2018-04-17T00:29:27.264Z,99.90
2018-04-17T00:30:30.571Z,99.90
2018-04-17T00:31:34.642Z,99.90
2018-04-17T00:32:37.985Z,99.90
2018-04-17T00:33:41.353Z,99.90
2018-04-17T00:34:44.781Z,99.90
2018-04-17T00:35:48.171Z,99.90
2018-04-17T00:36:51.529Z,99.90
2018-04-17T00:37:54.870Z,99.90
2018-04-17T00:38:58.284Z,99.90
2018-04-17T00:40:01.627Z,99.90
2018-04-17T00:41:04.935Z,99.90
2018-04-17T00:42:09.032Z,99.90
2018-04-17T00:43:12.386Z,99.90
2018-04-17T00:44:15.764Z,99.90
2018-04-17T00:45:19.698Z,99.90
2018-04-17T00:46:23.125Z,99.90
2018-04-17T00:47:26.465Z,99.90
2018-04-17T00:48:29.780Z,99.90
2018-04-17T00:49:33.200Z,99.90
2018-04-17T00:50:36.543Z,99.90
2018-04-17T00:51:39.879Z,99.90
2018-04-17T00:52:43.223Z,99.90
2018-04-17T00:53:58.632Z,99.90
2018-04-17T00:55:02.047Z,99.90
2018-04-17T00:56:05.423Z,99.90
2018-04-17T00:57:08.751Z,99.90
2018-04-17T00:58:12.085Z,99.90
2018-04-17T00:59:15.456Z,99.90
2018-04-17T01:00:18.822Z,99.90
2018-04-17T01:01:22.113Z,99.90
2018-04-17T01:02:32.473Z,99.90
2018-04-17T01:03:35.822Z,99.90
2018-04-17T01:04:39.185Z,99.90
2018-04-17T01:05:42.553Z,99.90
2018-04-17T01:06:45.861Z,99.90
2018-04-17T01:07:49.175Z,99.90
2018-04-17T01:08:52.507Z,99.90
2018-04-17T01:09:55.808Z,99.90
2018-04-17T01:10:59.212Z,99.90
2018-04-17T01:12:03.312Z,99.90
2018-04-17T01:13:06.726Z,99.90
2018-04-17T01:14:10.090Z,99.90
2018-04-17T01:15:13.419Z,99.90
2018-04-17T01:16:16.725Z,99.90
2018-04-17T01:17:20.090Z,99.90
2018-04-17T01:18:23.420Z,99.90
2018-04-17T01:19:26.770Z,99.90
2018-04-17T01:20:30.093Z,99.90
2018-04-17T01:21:33.457Z,99.90
2018-04-17T01:22:36.770Z,99.90
2018-04-17T01:23:40.102Z,99.90
2018-04-17T01:24:43.492Z,99.90
2018-04-17T01:25:46.812Z,99.90
2018-04-17T01:26:50.257Z,99.90
2018-04-17T01:27:53.635Z,99.90
2018-04-17T01:28:56.989Z,99.90
2018-04-17T01:30:00.363Z,99.90
2018-04-17T01:31:03.717Z,99.90
2018-04-17T01:32:07.116Z,99.90
2018-04-17T01:33:10.491Z,99.90
2018-04-17T01:34:13.863Z,99.90
2018-04-17T01:35:17.185Z,99.90
2018-04-17T01:36:20.521Z,99.90
2018-04-17T01:37:23.958Z,99.90
2018-04-17T01:38:27.283Z,99.90
2018-04-17T01:39:30.630Z,99.90
2018-04-17T01:40:33.997Z,99.90
2018-04-17T01:41:37.438Z,99.90
2018-04-17T01:42:40.758Z,99.90
2018-04-17T01:43:44.117Z,99.90
2018-04-17T01:44:47.690Z,99.90
2018-04-17T01:45:51.010Z,99.90
2018-04-17T01:46:54.442Z,99.90
2018-04-17T01:47:59.059Z,99.90
2018-04-17T01:49:02.442Z,99.90
2018-04-17T01:50:05.780Z,99.90
2018-04-17T01:51:09.112Z,99.90
2018-04-17T01:52:12.446Z,99.90
2018-04-17T01:53:15.853Z,99.90
2018-04-17T01:54:19.157Z,99.90
2018-04-17T01:55:22.512Z,99.90
2018-04-17T01:56:25.842Z,99.90
2018-04-17T01:57:29.251Z,99.90
2018-04-17T01:58:34.411Z,99.90
2018-04-17T01:59:37.927Z,99.90
2018-04-17T02:00:41.272Z,99.90
2018-04-17T02:01:44.601Z,99.90
2018-04-17T02:02:48.666Z,99.90
2018-04-17T02:05:01.485Z,99.90
2018-04-17T02:06:04.854Z,99.90
2018-04-17T02:07:08.318Z,99.90
2018-04-17T02:08:11.680Z,99.90
2018-04-17T02:09:15.061Z,99.90
2018-04-17T02:10:18.409Z,99.90
2018-04-17T02:11:21.733Z,99.90
2018-04-17T02:12:25.083Z,99.90
2018-04-17T02:13:28.395Z,99.90
2018-04-17T02:14:31.770Z,99.90
2018-04-17T02:15:35.140Z,99.90
2018-04-17T02:16:38.464Z,99.90
2018-04-17T02:17:41.809Z,99.90
2018-04-17T02:19:54.827Z,99.90
2018-04-17T02:20:58.179Z,99.90
2018-04-17T02:22:02.193Z,99.90
2018-04-17T02:23:05.580Z,99.90
2018-04-17T02:24:08.951Z,99.90
2018-04-17T02:25:12.340Z,99.90
2018-04-17T02:26:15.691Z,99.90
2018-04-17T02:27:19.053Z,99.90
2018-04-17T02:28:22.398Z,99.90
2018-04-17T02:29:25.774Z,99.90
2018-04-17T02:30:29.168Z,99.90
2018-04-17T02:31:32.574Z,99.90
2018-04-17T02:32:35.949Z,99.90
2018-04-17T02:33:39.735Z,99.90
2018-04-17T02:34:43.057Z,99.90
2018-04-17T02:35:46.391Z,99.90
2018-04-17T02:36:49.751Z,99.90
2018-04-17T02:37:53.171Z,99.90
2018-04-17T02:38:56.512Z,99.90
2018-04-17T02:40:00.064Z,99.90
2018-04-17T02:41:03.434Z,99.90
2018-04-17T02:42:06.766Z,99.90
2018-04-17T02:43:10.134Z,99.90
2018-04-17T02:44:13.492Z,99.90
2018-04-17T02:45:16.934Z,99.90
2018-04-17T02:46:20.311Z,99.90
2018-04-17T02:47:23.684Z,99.90
2018-04-17T02:48:27.072Z,99.90
2018-04-17T02:49:31.501Z,99.90
2018-04-17T02:50:34.867Z,99.90
2018-04-17T02:51:38.396Z,99.90
2018-04-17T02:52:42.692Z,99.90
2018-04-17T02:53:46.038Z,99.90
2018-04-17T02:54:49.444Z,99.90
2018-04-17T02:55:52.858Z,99.90
2018-04-17T02:56:56.267Z,99.90
2018-04-17T02:57:59.597Z,99.90
2018-04-17T02:59:02.983Z,99.90
2018-04-17T03:00:06.351Z,99.90
2018-04-17T03:01:09.787Z,99.90
2018-04-17T03:02:13.143Z,99.90
2018-04-17T03:03:16.583Z,99.90
2018-04-17T03:04:20.754Z,99.90
2018-04-17T03:05:24.085Z,99.90
2018-04-17T03:06:27.540Z,99.90
2018-04-17T03:07:31.641Z,99.90
2018-04-17T03:08:35.788Z,99.90
2018-04-17T03:09:39.146Z,99.90
2018-04-17T03:10:43.219Z,99.90
2018-04-17T03:11:46.519Z,99.90
2018-04-17T03:12:49.869Z,99.90
2018-04-17T03:13:53.295Z,99.90
2018-04-17T03:14:56.598Z,99.90
2018-04-17T03:15:59.970Z,99.90
2018-04-17T03:17:03.404Z,99.90
2018-04-17T03:18:06.763Z,99.90
2018-04-17T03:19:10.141Z,99.90
2018-04-17T03:20:13.494Z,99.90
2018-04-17T03:21:16.884Z,99.90
2018-04-17T03:22:20.285Z,99.90
2018-04-17T03:23:23.645Z,99.90
2018-04-17T03:24:26.984Z,99.90
2018-04-17T03:25:30.375Z,99.90
2018-04-17T03:26:33.729Z,99.90
2018-04-17T03:27:37.794Z,99.90
2018-04-17T03:28:41.177Z,99.90
2018-04-17T03:29:44.598Z,99.90
2018-04-17T03:30:47.914Z,99.90
2018-04-17T03:31:52.187Z,99.90
2018-04-17T03:32:55.554Z,99.90
2018-04-17T03:33:58.953Z,99.90
2018-04-17T03:35:02.285Z,99.90
2018-04-17T03:36:05.734Z,99.90
2018-04-17T03:37:09.070Z,99.90
2018-04-17T03:38:12.440Z,99.90
2018-04-17T03:39:16.580Z,99.90
2018-04-17T03:40:20.718Z,99.90
2018-04-17T03:41:24.172Z,99.90
2018-04-17T03:42:27.503Z,99.90
2018-04-17T03:43:30.820Z,99.90
2018-04-17T03:44:34.945Z,99.90
2018-04-17T03:45:38.343Z,99.90
2018-04-17T03:46:41.664Z,99.90
2018-04-17T03:47:45.046Z,99.90
2018-04-17T03:48:48.370Z,99.90
2018-04-17T03:49:51.678Z,99.90
2018-04-17T03:50:55.062Z,99.90
2018-04-17T03:51:58.434Z,99.90
2018-04-17T03:53:02.599Z,99.90
2018-04-17T03:54:06.044Z,99.90
2018-04-17T03:55:09.427Z,99.90
2018-04-17T03:56:12.738Z,99.90
2018-04-17T03:57:16.098Z,99.90
2018-04-17T03:58:20.126Z,99.90
2018-04-17T03:59:23.430Z,99.90
2018-04-17T04:00:26.772Z,99.90
2018-04-17T04:01:30.179Z,99.90
2018-04-17T04:02:33.494Z,99.90
2018-04-17T04:03:37.665Z,99.90
2018-04-17T04:04:41.003Z,99.90
2018-04-17T04:05:45.143Z,99.90
2018-04-17T04:06:49.324Z,99.90
2018-04-17T04:07:52.665Z,99.90
2018-04-17T04:08:56.744Z,99.90
2018-04-17T04:10:00.237Z,99.90
2018-04-17T04:11:03.734Z,99.90
2018-04-17T04:12:07.069Z,99.90
2018-04-17T04:13:11.358Z,99.90
2018-04-17T04:14:15.645Z,99.90
2018-04-17T04:15:20.146Z,99.90
2018-04-17T04:16:41.139Z,99.90
2018-04-17T04:19:47.410Z,99.90
2018-04-17T04:21:09.412Z,99.90
2018-04-17T04:22:30.184Z,99.90
2018-04-17T04:23:51.246Z,99.90
2018-04-17T04:26:49.430Z,99.90
2018-04-17T04:27:53.602Z,99.90
2018-04-17T04:28:56.965Z,99.90
2018-04-17T04:30:00.366Z,99.90
2018-04-17T04:31:03.769Z,99.90
2018-04-17T04:32:07.101Z,99.90
2018-04-17T04:33:10.721Z,99.90
2018-04-17T04:34:14.275Z,99.90
2018-04-17T04:35:17.737Z,99.90
2018-04-17T04:36:21.214Z,99.90
2018-04-17T04:37:24.754Z,99.90
2018-04-17T04:38:28.197Z,99.90
2018-04-17T04:39:31.530Z,99.90
2018-04-17T04:40:34.969Z,99.90
2018-04-17T04:41:38.334Z,99.90
2018-04-17T04:42:41.853Z,99.90
2018-04-17T04:43:45.211Z,99.90
2018-04-17T04:44:48.571Z,99.90
2018-04-17T04:45:51.940Z,99.90
2018-04-17T04:46:55.279Z,99.90
2018-04-17T04:47:58.584Z,99.90
2018-04-17T04:49:01.910Z,99.90
2018-04-17T04:50:05.226Z,99.90
2018-04-17T04:51:08.640Z,99.90
2018-04-17T04:52:12.085Z,99.90
2018-04-17T04:53:15.512Z,99.90
2018-04-17T04:54:18.867Z,99.90
2018-04-17T04:55:22.345Z,99.90
2018-04-17T04:56:27.645Z,99.90
2018-04-17T04:57:31.045Z,99.90
2018-04-17T04:58:34.365Z,99.90
2018-04-17T04:59:41.826Z,99.90
2018-04-17T05:00:45.406Z,99.90
2018-04-17T05:01:49.955Z,99.90
2018-04-17T05:02:53.383Z,99.90
2018-04-17T05:03:56.722Z,99.90
2018-04-17T05:05:00.080Z,99.90
2018-04-17T05:06:03.530Z,99.90
2018-04-17T05:07:07.971Z,99.90
2018-04-17T05:08:11.558Z,99.90
2018-04-17T05:09:14.911Z,99.90
2018-04-17T05:10:18.269Z,99.90
2018-04-17T05:11:21.603Z,99.90
2018-04-17T05:12:25.008Z,99.90
2018-04-17T05:13:28.443Z,99.90
2018-04-17T05:14:31.842Z,99.90
2018-04-17T05:15:35.227Z,99.90
2018-04-17T05:16:38.519Z,99.90
2018-04-17T05:17:41.919Z,99.90
2018-04-17T05:18:46.008Z,99.90
2018-04-17T05:19:49.314Z,99.90
2018-04-17T05:20:53.634Z,99.90
2018-04-17T05:21:57.081Z,99.90
2018-04-17T05:23:00.409Z,99.90
2018-04-17T05:24:03.784Z,99.90
2018-04-17T05:25:07.244Z,99.90
2018-04-17T05:26:11.020Z,99.90
2018-04-17T05:27:14.351Z,99.90
2018-04-17T05:28:17.659Z,99.90
2018-04-17T05:29:21.024Z,99.90
2018-04-17T05:30:24.347Z,99.90
2018-04-17T05:31:27.919Z,99.90
2018-04-17T05:32:31.256Z,99.90
2018-04-17T05:33:35.451Z,99.90
2018-04-17T05:34:39.069Z,99.90
2018-04-17T05:35:43.152Z,99.90
2018-04-17T05:36:47.089Z,99.90
2018-04-17T05:37:50.476Z,99.90
2018-04-17T05:38:53.812Z,99.90
2018-04-17T05:39:57.897Z,99.90
2018-04-17T05:41:01.786Z,99.90
2018-04-17T05:43:16.126Z,99.90
2018-04-17T05:44:19.518Z,99.90
2018-04-17T05:45:23.000Z,99.90
2018-04-17T05:46:26.448Z,99.90
2018-04-17T05:47:30.517Z,99.90
2018-04-17T05:48:33.912Z,99.90
2018-04-17T05:49:37.226Z,99.90
2018-04-17T05:50:40.697Z,99.90
2018-04-17T05:51:44.110Z,99.90
2018-04-17T05:52:47.470Z,99.90
2018-04-17T05:53:50.848Z,99.90
2018-04-17T05:54:54.238Z,99.90
2018-04-17T05:55:57.659Z,99.90
2018-04-17T05:57:08.453Z,99.90
2018-04-17T05:58:11.845Z,99.90
2018-04-17T05:59:15.234Z,99.90
2018-04-17T06:00:18.536Z,99.90
2018-04-17T06:01:22.471Z,99.90
2018-04-17T06:02:25.866Z,99.90
2018-04-17T06:03:29.205Z,99.90
2018-04-17T06:04:33.349Z,99.90
2018-04-17T06:05:36.759Z,99.90
2018-04-17T06:06:40.167Z,99.90
2018-04-17T06:07:43.508Z,99.90
2018-04-17T06:08:47.595Z,99.90
2018-04-17T06:09:50.950Z,99.90
2018-04-17T06:10:54.270Z,99.90
2018-04-17T06:11:58.977Z,99.90
2018-04-17T06:13:03.128Z,99.90
2018-04-17T06:14:06.536Z,99.90
2018-04-17T06:15:09.879Z,99.90
2018-04-17T06:16:13.283Z,99.90
2018-04-17T06:17:16.610Z,99.90
2018-04-17T06:18:19.968Z,99.90
2018-04-17T06:19:24.185Z,99.90
2018-04-17T06:20:27.581Z,99.90
2018-04-17T06:21:30.940Z,99.90
2018-04-17T06:22:34.320Z,99.90
2018-04-17T06:23:37.662Z,99.90
2018-04-17T06:24:40.991Z,99.90
2018-04-17T06:25:44.367Z,99.90
2018-04-17T06:26:47.692Z,99.90
2018-04-17T06:27:51.793Z,99.90
2018-04-17T06:28:55.135Z,99.90
2018-04-17T06:29:58.471Z,99.90
2018-04-17T06:31:02.705Z,99.90
2018-04-17T06:32:06.067Z,99.90
2018-04-17T06:33:09.423Z,99.90
2018-04-17T06:34:12.771Z,99.90
2018-04-17T06:35:16.193Z,99.90
2018-04-17T06:36:19.570Z,99.90
2018-04-17T06:37:22.917Z,99.90
2018-04-17T06:38:26.380Z,99.90
2018-04-17T06:39:29.841Z,99.90
2018-04-17T06:40:33.208Z,99.90
2018-04-17T06:41:36.583Z,99.90
2018-04-17T06:42:39.893Z,99.90
2018-04-17T06:43:43.444Z,99.90
2018-04-17T06:44:46.864Z,99.90
2018-04-17T06:45:50.212Z,99.90
2018-04-17T06:46:53.564Z,99.90
2018-04-17T06:47:56.919Z,99.90
2018-04-17T06:49:00.259Z,99.90
2018-04-17T06:50:03.793Z,99.90
2018-04-17T06:51:07.122Z,99.90
2018-04-17T06:52:10.499Z,99.90
2018-04-17T06:53:15.400Z,99.90
2018-04-17T06:54:18.763Z,99.90
2018-04-17T06:55:22.074Z,99.90
2018-04-17T06:56:25.461Z,99.90
2018-04-17T06:57:28.828Z,99.90
2018-04-17T06:58:32.136Z,99.90
2018-04-17T06:59:35.500Z,99.90
2018-04-17T07:00:38.803Z,99.90
2018-04-17T07:01:42.219Z,99.90
2018-04-17T07:02:45.644Z,99.90
2018-04-17T07:03:49.012Z,99.90
2018-04-17T07:04:52.414Z,99.90
2018-04-17T07:05:55.736Z,99.90
2018-04-17T07:07:00.458Z,99.90
2018-04-17T07:08:06.411Z,99.90
2018-04-17T07:09:13.142Z,99.90
2018-04-17T07:10:19.955Z,99.90
2018-04-17T07:11:26.799Z,99.90
2018-04-17T07:12:31.003Z,99.90
2018-04-17T07:13:34.435Z,99.90
2018-04-17T07:14:39.772Z,99.90
2018-04-17T07:15:43.187Z,99.90
2018-04-17T07:16:46.526Z,99.90
2018-04-17T07:17:50.595Z,99.90
2018-04-17T07:18:54.124Z,99.90
2018-04-17T07:19:57.493Z,99.90
2018-04-17T07:21:00.802Z,99.90
2018-04-17T07:22:04.140Z,99.90
2018-04-17T07:23:07.540Z,99.90
2018-04-17T07:24:10.946Z,99.90
2018-04-17T07:25:14.281Z,99.90
2018-04-17T07:26:17.604Z,99.90
2018-04-17T07:27:20.939Z,99.90
2018-04-17T07:28:24.278Z,99.90
2018-04-17T07:29:27.655Z,99.90
2018-04-17T07:30:30.992Z,99.90
2018-04-17T07:31:34.488Z,99.90
2018-04-17T07:32:37.908Z,99.90
2018-04-17T07:33:41.212Z,99.90
2018-04-17T07:34:44.578Z,99.90
2018-04-17T07:35:47.912Z,99.90
2018-04-17T07:36:51.303Z,99.80
2018-04-17T07:37:54.787Z,99.90
2018-04-17T07:38:58.143Z,99.90
2018-04-17T07:40:01.484Z,99.90
2018-04-17T07:41:05.088Z,99.90
2018-04-17T07:42:08.601Z,99.90
2018-04-17T07:43:12.000Z,99.80
2018-04-17T07:44:15.299Z,99.50
2018-04-17T07:45:18.676Z,99.70
2018-04-17T07:46:22.006Z,99.80
2018-04-17T07:47:32.157Z,99.50
2018-04-17T07:48:50.166Z,99.60
2018-04-17T07:49:53.451Z,99.70
2018-04-17T07:50:56.903Z,99.80
2018-04-17T07:52:01.099Z,99.90
2018-04-17T07:53:05.268Z,99.90
2018-04-17T07:54:09.366Z,99.90
2018-04-17T07:55:12.928Z,99.90
2018-04-17T07:56:16.271Z,99.90
2018-04-17T07:57:19.708Z,99.90
2018-04-17T07:58:23.082Z,99.90
2018-04-17T07:59:26.446Z,99.70
2018-04-17T08:00:30.538Z,99.60
2018-04-17T08:01:34.652Z,99.40
2018-04-17T08:02:37.965Z,99.40
2018-04-17T08:03:41.537Z,99.20
2018-04-17T08:04:44.875Z,99.10
2018-04-17T08:05:48.233Z,98.90
2018-04-17T08:06:52.437Z,98.60
2018-04-17T08:07:55.791Z,98.90
2018-04-17T08:08:59.888Z,98.00
2018-04-17T08:10:03.245Z,98.00
2018-04-17T08:11:07.385Z,97.50
2018-04-17T08:12:11.560Z,97.50
2018-04-17T08:13:14.836Z,97.50
2018-04-17T08:14:18.143Z,97.60
2018-04-17T08:15:21.485Z,97.50
2018-04-17T08:16:25.663Z,97.60
2018-04-17T08:17:29.081Z,97.70
2018-04-17T08:18:32.475Z,97.70
2018-04-17T08:19:35.959Z,97.60
2018-04-17T08:20:39.371Z,97.50
2018-04-17T08:21:42.698Z,97.50
2018-04-17T08:22:46.124Z,97.80
2018-04-17T08:23:49.440Z,97.40
2018-04-17T08:24:52.832Z,97.20
2018-04-17T08:25:56.178Z,96.90
2018-04-17T08:26:59.562Z,96.80
2018-04-17T08:28:02.920Z,96.80
2018-04-17T08:29:06.489Z,96.70
2018-04-17T08:30:10.585Z,96.50
2018-04-17T08:31:13.931Z,96.50
2018-04-17T08:32:17.294Z,96.60
2018-04-17T08:33:20.671Z,96.70
2018-04-17T08:34:24.069Z,96.70
2018-04-17T08:35:27.416Z,96.30
2018-04-17T08:36:31.520Z,95.90
2018-04-17T08:37:35.664Z,95.40
2018-04-17T08:38:38.974Z,95.30
2018-04-17T08:39:42.334Z,95.00
2018-04-17T08:40:45.654Z,94.90
2018-04-17T08:41:49.011Z,94.90
2018-04-17T08:42:52.341Z,94.60
2018-04-17T08:43:55.781Z,94.30
2018-04-17T08:44:59.094Z,94.60
2018-04-17T08:46:02.435Z,94.50
2018-04-17T08:47:05.815Z,94.50
2018-04-17T08:48:09.324Z,94.40
2018-04-17T08:49:12.707Z,94.10
2018-04-17T08:50:16.071Z,94.10
2018-04-17T08:51:19.473Z,94.50
2018-04-17T08:52:22.800Z,93.90
2018-04-17T08:53:26.942Z,93.70
2018-04-17T08:54:30.300Z,93.70
2018-04-17T08:55:33.665Z,93.50
2018-04-17T08:56:37.107Z,93.70
2018-04-17T08:57:40.474Z,93.70
2018-04-17T08:58:43.809Z,93.60
2018-04-17T08:59:47.161Z,93.60
2018-04-17T09:00:50.513Z,93.60
2018-04-17T09:01:53.839Z,93.70
2018-04-17T09:02:57.398Z,93.80
2018-04-17T09:04:00.761Z,93.70
2018-04-17T09:05:04.120Z,93.70
2018-04-17T09:06:07.465Z,93.50
2018-04-17T09:07:11.586Z,93.50
2018-04-17T09:08:14.922Z,93.50
2018-04-17T09:09:18.267Z,93.10
2018-04-17T09:10:21.642Z,92.90
2018-04-17T09:11:25.016Z,92.80
2018-04-17T09:12:28.415Z,92.30
2018-04-17T09:13:31.739Z,92.10
2018-04-17T09:14:35.129Z,92.10
2018-04-17T09:15:38.772Z,92.10
2018-04-17T09:16:42.098Z,92.00
2018-04-17T09:17:45.495Z,92.00
2018-04-17T09:18:49.545Z,91.80
2018-04-17T09:19:52.989Z,91.80
2018-04-17T09:20:56.559Z,91.70
2018-04-17T09:21:59.897Z,91.80
2018-04-17T09:23:03.218Z,91.60
2018-04-17T09:24:06.639Z,91.20
2018-04-17T09:25:10.013Z,91.10
2018-04-17T09:26:13.432Z,90.90
2018-04-17T09:27:16.901Z,91.00
2018-04-17T09:28:20.295Z,90.70
2018-04-17T09:29:23.648Z,90.00
2018-04-17T09:30:26.968Z,89.40
2018-04-17T09:31:30.372Z,89.10
2018-04-17T09:32:33.722Z,89.00
2018-04-17T09:33:37.073Z,88.50
2018-04-17T09:34:40.954Z,88.40
2018-04-17T09:35:45.058Z,87.40
2018-04-17T09:36:48.418Z,87.40
2018-04-17T09:37:52.573Z,86.30
2018-04-17T09:38:55.968Z,86.40
2018-04-17T09:39:59.712Z,85.50
2018-04-17T09:41:03.080Z,85.70
2018-04-17T09:42:06.465Z,86.40
2018-04-17T09:43:10.071Z,86.60
2018-04-17T09:44:13.448Z,86.70
2018-04-17T09:45:17.581Z,86.80
2018-04-17T09:46:20.926Z,86.80
2018-04-17T09:47:24.281Z,86.80
2018-04-17T09:48:27.652Z,86.30
2018-04-17T09:49:30.980Z,85.80
2018-04-17T09:50:34.341Z,84.80
2018-04-17T09:51:37.645Z,84.90
2018-04-17T09:52:41.052Z,84.70
2018-04-17T09:53:46.379Z,84.80
2018-04-17T09:54:49.721Z,84.70
2018-04-17T09:55:53.090Z,84.60
2018-04-17T09:56:56.562Z,84.70
2018-04-17T09:58:00.724Z,83.40
2018-04-17T09:59:04.124Z,83.50
2018-04-17T10:00:07.693Z,83.00
2018-04-17T10:01:16.924Z,81.50
2018-04-17T10:02:20.301Z,82.00
2018-04-17T10:03:23.794Z,81.60
2018-04-17T10:04:27.152Z,81.20
2018-04-17T10:05:30.537Z,82.50
2018-04-17T10:06:33.925Z,80.60
2018-04-17T10:07:37.249Z,81.20
2018-04-17T10:08:40.692Z,81.40
2018-04-17T10:09:44.071Z,81.00
2018-04-17T10:10:47.487Z,79.00
2018-04-17T10:11:50.939Z,79.10
2018-04-17T10:12:54.274Z,77.70
2018-04-17T10:13:57.634Z,77.40
2018-04-17T10:15:01.197Z,77.20
2018-04-17T10:16:04.553Z,77.40
2018-04-17T10:17:07.889Z,78.00
2018-04-17T10:18:11.245Z,78.80
2018-04-17T10:19:15.445Z,77.60
2018-04-17T10:20:19.616Z,77.20
2018-04-17T10:21:23.262Z,77.10
2018-04-17T10:22:26.596Z,76.30
2018-04-17T10:23:29.947Z,76.30
2018-04-17T10:24:33.399Z,76.10
2018-04-17T10:25:36.757Z,75.40
2018-04-17T10:26:40.079Z,75.30
2018-04-17T10:27:43.450Z,74.90
2018-04-17T10:28:46.869Z,74.90
2018-04-17T10:29:50.344Z,74.20
2018-04-17T10:30:53.712Z,73.60
2018-04-17T10:31:57.120Z,73.20
2018-04-17T10:33:00.488Z,73.30
2018-04-17T10:34:03.904Z,72.60
2018-04-17T10:35:07.319Z,72.80
2018-04-17T10:36:10.679Z,72.30
2018-04-17T10:37:14.011Z,71.60
2018-04-17T10:38:17.500Z,70.90
2018-04-17T10:39:20.836Z,71.00
2018-04-17T10:40:24.292Z,70.80
2018-04-17T10:41:28.442Z,70.20
2018-04-17T10:42:31.821Z,70.20
2018-04-17T10:43:35.218Z,69.80
2018-04-17T10:44:38.574Z,69.20
2018-04-17T10:45:41.951Z,68.60
2018-04-17T10:46:45.403Z,68.40
2018-04-17T10:47:51.012Z,68.50
2018-04-17T10:48:54.381Z,68.30
2018-04-17T10:49:57.861Z,67.80
2018-04-17T10:51:01.240Z,68.00
2018-04-17T10:52:04.625Z,68.40
2018-04-17T10:53:08.241Z,68.20
2018-04-17T10:54:11.605Z,69.10
2018-04-17T10:55:14.996Z,69.70
2018-04-17T10:56:18.368Z,69.90
2018-04-17T10:57:22.581Z,68.40
2018-04-17T10:58:26.000Z,68.40
2018-04-17T10:59:29.378Z,67.50
2018-04-17T11:00:32.805Z,66.40
2018-04-17T11:01:36.296Z,66.20
2018-04-17T11:02:39.690Z,66.10
2018-04-17T11:03:43.146Z,64.60
2018-04-17T11:04:46.654Z,64.50
2018-04-17T11:05:50.786Z,64.50
2018-04-17T11:06:54.240Z,64.70
2018-04-17T11:07:57.587Z,64.80
2018-04-17T11:09:00.943Z,65.30
2018-04-17T11:10:05.043Z,66.20
2018-04-17T11:11:08.393Z,66.10
2018-04-17T11:12:11.782Z,65.90
2018-04-17T11:13:15.163Z,65.30
2018-04-17T11:14:18.535Z,64.60
2018-04-17T11:15:21.892Z,64.20
2018-04-17T11:16:25.257Z,64.00
2018-04-17T11:17:28.612Z,63.10
2018-04-17T11:18:31.937Z,63.30
2018-04-17T11:19:36.980Z,63.70
2018-04-17T11:20:40.313Z,63.70
2018-04-17T11:21:43.658Z,63.70
2018-04-17T11:22:47.097Z,64.40
2018-04-17T11:23:51.240Z,63.30
2018-04-17T11:24:55.400Z,62.80
2018-04-17T11:25:58.736Z,62.80
2018-04-17T11:27:02.850Z,62.90
2018-04-17T11:28:06.247Z,62.90
2018-04-17T11:29:09.647Z,62.60
2018-04-17T11:30:13.110Z,62.40
2018-04-17T11:31:16.577Z,61.70
2018-04-17T11:32:21.358Z,62.10
2018-04-17T11:33:24.927Z,62.40
2018-04-17T11:34:28.326Z,62.60
2018-04-17T11:35:31.598Z,62.50
2018-04-17T11:36:34.928Z,61.20
2018-04-17T11:37:38.453Z,61.30
2018-04-17T11:38:41.828Z,61.60
2018-04-17T11:39:45.200Z,61.20
2018-04-17T11:40:48.517Z,61.10
2018-04-17T11:41:51.917Z,59.90
2018-04-17T11:42:55.313Z,59.70
2018-04-17T11:43:59.492Z,59.70
2018-04-17T11:45:02.922Z,59.20
2018-04-17T11:46:06.288Z,59.70
2018-04-17T11:47:09.773Z,58.90
2018-04-17T11:48:14.108Z,59.50
2018-04-17T11:49:17.457Z,57.50
2018-04-17T11:50:20.826Z,58.70
2018-04-17T11:51:24.193Z,59.20
2018-04-17T11:52:27.543Z,59.30
2018-04-17T11:53:30.871Z,59.00
2018-04-17T11:54:34.238Z,58.70
2018-04-17T11:55:38.324Z,59.20
2018-04-17T11:56:41.688Z,59.20
2018-04-17T11:57:45.043Z,59.30
2018-04-17T11:59:52.952Z,57.80
2018-04-17T12:00:56.752Z,58.10
2018-04-17T12:02:00.170Z,57.20
2018-04-17T12:03:03.535Z,57.50
2018-04-17T12:04:06.887Z,57.50
2018-04-17T12:05:10.307Z,57.70
2018-04-17T12:06:13.643Z,58.10
2018-04-17T12:07:17.834Z,57.90
2018-04-17T12:08:21.173Z,57.80
2018-04-17T12:09:24.552Z,58.60
2018-04-17T12:10:28.100Z,58.10
2018-04-17T12:11:32.343Z,56.80
2018-04-17T12:12:35.825Z,56.80
2018-04-17T12:13:39.194Z,56.80
2018-04-17T12:14:42.918Z,56.50
2018-04-17T12:15:48.228Z,56.30
2018-04-17T12:16:52.197Z,56.20
2018-04-17T12:17:56.059Z,56.50
2018-04-17T12:18:59.386Z,56.70
2018-04-17T12:20:02.776Z,57.70
2018-04-17T12:21:07.768Z,57.00
2018-04-17T12:22:11.200Z,57.00
2018-04-17T12:23:14.795Z,55.80
2018-04-17T12:24:18.266Z,55.20
2018-04-17T12:25:21.622Z,55.40
2018-04-17T12:26:25.878Z,55.50
2018-04-17T12:27:30.371Z,55.70
2018-04-17T12:28:34.491Z,56.50
2018-04-17T12:29:37.871Z,56.50
2018-04-17T12:30:41.386Z,56.80
2018-04-17T12:31:44.783Z,56.70
2018-04-17T12:32:48.125Z,56.00
2018-04-17T12:33:52.283Z,56.30
2018-04-17T12:34:55.693Z,56.30
2018-04-17T12:35:59.106Z,56.40
2018-04-17T12:37:02.585Z,55.80
2018-04-17T12:38:06.945Z,55.30
2018-04-17T12:39:10.336Z,55.30
2018-04-17T12:40:13.694Z,54.90
2018-04-17T12:41:18.603Z,55.30
2018-04-17T12:42:21.991Z,55.30
2018-04-17T12:43:25.348Z,54.80
2018-04-17T12:44:28.722Z,55.00
2018-04-17T12:45:32.836Z,56.30
2018-04-17T12:46:36.230Z,56.30
2018-04-17T12:47:40.452Z,56.40
2018-04-17T12:48:44.737Z,56.50
2018-04-17T12:49:48.339Z,56.50
2018-04-17T12:50:51.808Z,56.00
2018-04-17T12:51:55.376Z,55.40
2018-04-17T12:52:59.949Z,54.90
2018-04-17T12:54:03.812Z,54.90
2018-04-17T12:55:07.192Z,54.50
2018-04-17T12:56:10.577Z,54.00
2018-04-17T12:58:25.019Z,53.10
2018-04-17T12:59:28.427Z,53.00
2018-04-17T13:00:31.760Z,53.30
2018-04-17T13:01:35.376Z,53.80
2018-04-17T13:02:38.895Z,54.10
2018-04-17T13:03:42.828Z,54.40
2018-04-17T13:04:46.159Z,54.10
2018-04-17T13:05:49.630Z,54.20
2018-04-17T13:06:54.028Z,53.80
2018-04-17T13:07:57.377Z,54.00
2018-04-17T13:09:01.796Z,53.50
2018-04-17T13:10:05.190Z,53.40
2018-04-17T13:11:09.040Z,53.70
2018-04-17T13:12:13.146Z,54.00
2018-04-17T13:13:16.519Z,53.70
2018-04-17T13:14:21.120Z,53.30
2018-04-17T13:15:24.509Z,53.50
2018-04-17T13:16:27.877Z,53.70
2018-04-17T13:17:31.223Z,53.40
2018-04-17T13:18:34.655Z,53.30
2018-04-17T13:19:38.384Z,53.00
2018-04-17T13:20:43.161Z,52.90
2018-04-17T13:21:46.541Z,53.20
2018-04-17T13:22:49.941Z,53.10
2018-04-17T13:23:54.017Z,53.50
2018-04-17T13:24:58.209Z,53.50
2018-04-17T13:26:02.462Z,53.10
2018-04-17T13:27:10.179Z,53.10
2018-04-17T13:28:15.602Z,53.10
2018-04-17T13:29:18.984Z,53.10
2018-04-17T13:30:22.434Z,53.10
2018-04-17T13:31:25.830Z,53.60
2018-04-17T13:32:29.244Z,53.40
2018-04-17T13:33:32.674Z,53.80
2018-04-17T13:34:36.582Z,53.50
2018-04-17T13:35:40.040Z,53.50
2018-04-17T13:36:44.113Z,53.20
2018-04-17T13:37:52.139Z,52.50
2018-04-17T13:38:56.325Z,53.20
2018-04-17T13:39:59.696Z,53.20
2018-04-17T13:41:03.137Z,53.40
2018-04-17T13:42:07.601Z,53.00
2018-04-17T13:43:11.364Z,53.40
2018-04-17T13:44:14.700Z,53.30
2018-04-17T13:45:18.033Z,52.30
2018-04-17T13:46:22.238Z,52.20
2018-04-17T13:47:25.582Z,51.30
2018-04-17T13:48:30.255Z,51.50
2018-04-17T13:49:33.735Z,51.30
2018-04-17T13:50:37.239Z,51.70